sensor_id;sensor_type;location;lat;lon;timestamp;temperature;humidity
11855;DHT22;5987;53.140;8.904;2024-03-06T00:01:09;5.20;99.90
11855;DHT22;5987;53.140;8.904;2024-03-06T00:04:13;5.20;99.90
11855;DHT22;5987;53.140;8.904;2024-03-06T00:07:20;5.20;99.90
11855;DHT22;5987;53.140;8.904;2024-03-06T00:10:25;5.20;99.90
11855;DHT22;5987;53.140;8.904;2024-03-06T00:13:28;5.20;99.90
11855;DHT22;5987;53.140;8.904;2024-03-06T00:16:34;5.20;99.90
11855;DHT22;5987;53.140;8.904;2024-03-06T00:19:38;5.20;99.90
11855;DHT22;5987;53.140;8.904;2024-03-06T00:22:41;5.20;99.90
11855;DHT22;5987;53.140;8.904;2024-03-06T00:25:46;5.20;99.90
11855;DHT22;5987;53.140;8.904;2024-03-06T00:28:50;5.20;99.90
11855;DHT22;5987;53.140;8.904;2024-03-06T00:31:55;5.20;99.90
11855;DHT22;5987;53.140;8.904;2024-03-06T00:34:59;5.20;99.90
11855;DHT22;5987;53.140;8.904;2024-03-06T00:38:03;5.20;99.90
11855;DHT22;5987;53.140;8.904;2024-03-06T00:41:08;5.20;99.90
11855;DHT22;5987;53.140;8.904;2024-03-06T00:44:13;5.10;99.90
11855;DHT22;5987;53.140;8.904;2024-03-06T00:47:18;5.10;99.90
11855;DHT22;5987;53.140;8.904;2024-03-06T00:50:24;5.10;99.90
11855;DHT22;5987;53.140;8.904;2024-03-06T00:53:27;5.10;99.90
11855;DHT22;5987;53.140;8.904;2024-03-06T00:56:31;5.10;99.90
11855;DHT22;5987;53.140;8.904;2024-03-06T00:59:35;5.20;99.90
11855;DHT22;5987;53.140;8.904;2024-03-06T01:02:40;5.10;99.90
11855;DHT22;5987;53.140;8.904;2024-03-06T01:05:45;5.10;99.90
11855;DHT22;5987;53.140;8.904;2024-03-06T01:08:49;5.20;99.90
11855;DHT22;5987;53.140;8.904;2024-03-06T01:11:52;5.20;99.90
11855;DHT22;5987;53.140;8.904;2024-03-06T01:14:56;5.20;99.90
11855;DHT22;5987;53.140;8.904;2024-03-06T01:18:02;5.20;99.90
11855;DHT22;5987;53.140;8.904;2024-03-06T01:21:06;5.20;99.90
11855;DHT22;5987;53.140;8.904;2024-03-06T01:24:10;5.10;99.90
11855;DHT22;5987;53.140;8.904;2024-03-06T01:27:14;5.10;99.90
11855;DHT22;5987;53.140;8.904;2024-03-06T01:30:18;5.20;99.90
11855;DHT22;5987;53.140;8.904;2024-03-06T01:33:24;5.20;99.90
11855;DHT22;5987;53.140;8.904;2024-03-06T01:36:28;5.20;99.90
11855;DHT22;5987;53.140;8.904;2024-03-06T01:39:32;5.20;99.90
11855;DHT22;5987;53.140;8.904;2024-03-06T01:42:37;5.10;99.90
11855;DHT22;5987;53.140;8.904;2024-03-06T01:45:41;5.10;99.90
11855;DHT22;5987;53.140;8.904;2024-03-06T01:48:46;5.10;99.90
11855;DHT22;5987;53.140;8.904;2024-03-06T01:51:54;5.20;99.90
11855;DHT22;5987;53.140;8.904;2024-03-06T01:55:00;5.20;99.90
11855;DHT22;5987;53.140;8.904;2024-03-06T01:58:05;5.20;99.90
11855;DHT22;5987;53.140;8.904;2024-03-06T02:01:09;5.10;99.90
11855;DHT22;5987;53.140;8.904;2024-03-06T02:04:15;5.20;99.90
11855;DHT22;5987;53.140;8.904;2024-03-06T02:07:20;5.20;99.90
11855;DHT22;5987;53.140;8.904;2024-03-06T02:10:25;5.20;99.90
11855;DHT22;5987;53.140;8.904;2024-03-06T02:13:29;5.20;99.90
11855;DHT22;5987;53.140;8.904;2024-03-06T02:16:34;5.10;99.90
11855;DHT22;5987;53.140;8.904;2024-03-06T02:19:40;5.10;99.90
11855;DHT22;5987;53.140;8.904;2024-03-06T02:22:46;5.10;99.90
11855;DHT22;5987;53.140;8.904;2024-03-06T02:25:50;5.00;99.90
11855;DHT22;5987;53.140;8.904;2024-03-06T02:28:55;5.10;99.90
11855;DHT22;5987;53.140;8.904;2024-03-06T02:32:00;5.00;99.90
11855;DHT22;5987;53.140;8.904;2024-03-06T02:35:05;5.00;99.90
11855;DHT22;5987;53.140;8.904;2024-03-06T02:38:12;5.00;99.90
11855;DHT22;5987;53.140;8.904;2024-03-06T02:41:17;5.00;99.90
11855;DHT22;5987;53.140;8.904;2024-03-06T02:44:21;5.00;99.90
11855;DHT22;5987;53.140;8.904;2024-03-06T02:47:25;5.00;99.90
11855;DHT22;5987;53.140;8.904;2024-03-06T02:50:28;5.00;99.90
11855;DHT22;5987;53.140;8.904;2024-03-06T02:53:34;4.90;99.90
11855;DHT22;5987;53.140;8.904;2024-03-06T02:56:37;4.80;99.90
11855;DHT22;5987;53.140;8.904;2024-03-06T02:59:42;4.80;99.90
11855;DHT22;5987;53.140;8.904;2024-03-06T03:02:46;4.80;99.90
11855;DHT22;5987;53.140;8.904;2024-03-06T03:05:49;4.80;99.90
11855;DHT22;5987;53.140;8.904;2024-03-06T03:08:55;4.70;99.90
11855;DHT22;5987;53.140;8.904;2024-03-06T03:11:59;4.70;99.90
11855;DHT22;5987;53.140;8.904;2024-03-06T03:15:03;4.70;99.90
11855;DHT22;5987;53.140;8.904;2024-03-06T03:18:08;4.60;99.90
11855;DHT22;5987;53.140;8.904;2024-03-06T03:21:12;4.60;99.90
11855;DHT22;5987;53.140;8.904;2024-03-06T03:24:18;4.60;99.90
11855;DHT22;5987;53.140;8.904;2024-03-06T03:27:22;4.60;99.90
11855;DHT22;5987;53.140;8.904;2024-03-06T03:30:26;4.50;99.90
11855;DHT22;5987;53.140;8.904;2024-03-06T03:33:30;4.50;99.90
11855;DHT22;5987;53.140;8.904;2024-03-06T03:36:33;4.40;99.90
11855;DHT22;5987;53.140;8.904;2024-03-06T03:39:38;4.40;99.90
11855;DHT22;5987;53.140;8.904;2024-03-06T03:42:44;4.30;99.90
11855;DHT22;5987;53.140;8.904;2024-03-06T03:45:48;4.30;99.90
11855;DHT22;5987;53.140;8.904;2024-03-06T03:48:52;4.30;99.90
11855;DHT22;5987;53.140;8.904;2024-03-06T03:51:56;4.30;99.90
11855;DHT22;5987;53.140;8.904;2024-03-06T03:55:01;4.30;99.90
11855;DHT22;5987;53.140;8.904;2024-03-06T03:58:05;4.20;99.90
11855;DHT22;5987;53.140;8.904;2024-03-06T04:01:11;4.20;99.90
11855;DHT22;5987;53.140;8.904;2024-03-06T04:04:15;4.20;99.90
11855;DHT22;5987;53.140;8.904;2024-03-06T04:07:19;4.10;99.90
11855;DHT22;5987;53.140;8.904;2024-03-06T04:10:24;4.20;99.90
11855;DHT22;5987;53.140;8.904;2024-03-06T04:13:28;4.20;99.90
11855;DHT22;5987;53.140;8.904;2024-03-06T04:16:32;4.20;99.90
11855;DHT22;5987;53.140;8.904;2024-03-06T04:19:36;4.10;99.90
11855;DHT22;5987;53.140;8.904;2024-03-06T04:22:40;4.20;99.90
11855;DHT22;5987;53.140;8.904;2024-03-06T04:25:46;4.10;99.90
11855;DHT22;5987;53.140;8.904;2024-03-06T04:28:49;4.20;99.90
11855;DHT22;5987;53.140;8.904;2024-03-06T04:31:53;4.20;99.90
11855;DHT22;5987;53.140;8.904;2024-03-06T04:34:57;4.30;99.90
11855;DHT22;5987;53.140;8.904;2024-03-06T04:38:02;4.20;99.90
11855;DHT22;5987;53.140;8.904;2024-03-06T04:41:07;4.20;99.90
11855;DHT22;5987;53.140;8.904;2024-03-06T04:44:12;4.10;99.90
11855;DHT22;5987;53.140;8.904;2024-03-06T04:47:17;4.10;99.90
11855;DHT22;5987;53.140;8.904;2024-03-06T04:50:21;4.20;99.90
11855;DHT22;5987;53.140;8.904;2024-03-06T04:53:25;4.20;99.90
11855;DHT22;5987;53.140;8.904;2024-03-06T04:56:30;4.10;99.90
11855;DHT22;5987;53.140;8.904;2024-03-06T04:59:34;4.10;99.90
11855;DHT22;5987;53.140;8.904;2024-03-06T05:02:38;4.10;99.90
11855;DHT22;5987;53.140;8.904;2024-03-06T05:06:01;4.10;99.90
11855;DHT22;5987;53.140;8.904;2024-03-06T05:09:22;4.10;99.90
11855;DHT22;5987;53.140;8.904;2024-03-06T05:12:45;4.00;99.90
11855;DHT22;5987;53.140;8.904;2024-03-06T05:16:07;4.00;99.90
11855;DHT22;5987;53.140;8.904;2024-03-06T05:19:29;4.00;99.90
11855;DHT22;5987;53.140;8.904;2024-03-06T05:22:51;4.00;99.90
11855;DHT22;5987;53.140;8.904;2024-03-06T05:26:12;4.00;99.90
11855;DHT22;5987;53.140;8.904;2024-03-06T05:29:35;4.00;99.90
11855;DHT22;5987;53.140;8.904;2024-03-06T05:32:56;4.10;99.90
11855;DHT22;5987;53.140;8.904;2024-03-06T05:36:18;4.00;99.90
11855;DHT22;5987;53.140;8.904;2024-03-06T05:39:39;4.00;99.90
11855;DHT22;5987;53.140;8.904;2024-03-06T05:43:02;3.90;99.90
11855;DHT22;5987;53.140;8.904;2024-03-06T05:46:24;3.90;99.90
11855;DHT22;5987;53.140;8.904;2024-03-06T05:49:46;3.90;99.90
11855;DHT22;5987;53.140;8.904;2024-03-06T05:53:07;3.80;99.90
11855;DHT22;5987;53.140;8.904;2024-03-06T05:56:30;3.90;99.90
11855;DHT22;5987;53.140;8.904;2024-03-06T05:59:51;3.90;99.90
11855;DHT22;5987;53.140;8.904;2024-03-06T06:02:57;3.80;99.90
11855;DHT22;5987;53.140;8.904;2024-03-06T06:06:00;3.80;99.90
11855;DHT22;5987;53.140;8.904;2024-03-06T06:09:05;3.80;99.90
11855;DHT22;5987;53.140;8.904;2024-03-06T06:12:15;3.80;99.90
11855;DHT22;5987;53.140;8.904;2024-03-06T06:15:19;3.80;99.90
11855;DHT22;5987;53.140;8.904;2024-03-06T06:18:24;3.90;99.90
11855;DHT22;5987;53.140;8.904;2024-03-06T06:21:29;3.90;99.90
11855;DHT22;5987;53.140;8.904;2024-03-06T06:24:33;3.90;99.90
11855;DHT22;5987;53.140;8.904;2024-03-06T06:27:37;4.00;99.90
11855;DHT22;5987;53.140;8.904;2024-03-06T06:30:41;4.10;99.90
11855;DHT22;5987;53.140;8.904;2024-03-06T06:33:46;4.10;99.90
11855;DHT22;5987;53.140;8.904;2024-03-06T06:36:52;4.10;99.90
11855;DHT22;5987;53.140;8.904;2024-03-06T06:39:57;4.10;99.90
11855;DHT22;5987;53.140;8.904;2024-03-06T06:43:01;4.20;99.90
11855;DHT22;5987;53.140;8.904;2024-03-06T06:46:05;4.20;99.90
11855;DHT22;5987;53.140;8.904;2024-03-06T06:49:10;4.20;99.90
11855;DHT22;5987;53.140;8.904;2024-03-06T06:52:15;4.30;99.90
11855;DHT22;5987;53.140;8.904;2024-03-06T06:55:19;4.30;99.90
11855;DHT22;5987;53.140;8.904;2024-03-06T06:58:25;4.30;99.90
11855;DHT22;5987;53.140;8.904;2024-03-06T07:01:30;4.30;99.90
11855;DHT22;5987;53.140;8.904;2024-03-06T07:04:36;4.30;99.90
11855;DHT22;5987;53.140;8.904;2024-03-06T07:07:40;4.30;99.90
11855;DHT22;5987;53.140;8.904;2024-03-06T07:10:44;4.30;99.90
11855;DHT22;5987;53.140;8.904;2024-03-06T07:13:48;4.30;99.90
11855;DHT22;5987;53.140;8.904;2024-03-06T07:16:52;4.30;99.90
11855;DHT22;5987;53.140;8.904;2024-03-06T07:19:57;4.40;99.90
11855;DHT22;5987;53.140;8.904;2024-03-06T07:23:01;4.30;99.90
11855;DHT22;5987;53.140;8.904;2024-03-06T07:26:06;4.30;99.90
11855;DHT22;5987;53.140;8.904;2024-03-06T07:29:10;4.40;99.90
11855;DHT22;5987;53.140;8.904;2024-03-06T07:32:17;4.40;99.90
11855;DHT22;5987;53.140;8.904;2024-03-06T07:35:22;4.40;99.90
11855;DHT22;5987;53.140;8.904;2024-03-06T07:38:30;4.50;99.90
11855;DHT22;5987;53.140;8.904;2024-03-06T07:41:34;4.50;99.90
11855;DHT22;5987;53.140;8.904;2024-03-06T07:44:38;4.50;99.90
11855;DHT22;5987;53.140;8.904;2024-03-06T07:47:42;4.50;99.90
11855;DHT22;5987;53.140;8.904;2024-03-06T07:50:48;4.50;99.90
11855;DHT22;5987;53.140;8.904;2024-03-06T07:53:52;4.50;99.90
11855;DHT22;5987;53.140;8.904;2024-03-06T07:56:56;4.60;99.90
11855;DHT22;5987;53.140;8.904;2024-03-06T08:00:00;4.70;99.90
11855;DHT22;5987;53.140;8.904;2024-03-06T08:03:05;4.70;99.90
11855;DHT22;5987;53.140;8.904;2024-03-06T08:06:10;4.70;99.90
11855;DHT22;5987;53.140;8.904;2024-03-06T08:09:17;4.80;99.90
11855;DHT22;5987;53.140;8.904;2024-03-06T08:12:22;4.70;99.90
11855;DHT22;5987;53.140;8.904;2024-03-06T08:15:25;4.90;99.90
11855;DHT22;5987;53.140;8.904;2024-03-06T08:18:29;5.00;99.90
11855;DHT22;5987;53.140;8.904;2024-03-06T08:21:36;5.10;99.90
11855;DHT22;5987;53.140;8.904;2024-03-06T08:24:39;5.20;99.90
11855;DHT22;5987;53.140;8.904;2024-03-06T08:27:43;5.40;99.90
11855;DHT22;5987;53.140;8.904;2024-03-06T08:30:47;5.80;99.90
11855;DHT22;5987;53.140;8.904;2024-03-06T08:33:51;6.00;99.90
11855;DHT22;5987;53.140;8.904;2024-03-06T08:36:57;6.10;99.90
11855;DHT22;5987;53.140;8.904;2024-03-06T08:40:01;6.10;99.90
11855;DHT22;5987;53.140;8.904;2024-03-06T08:43:09;5.90;99.90
11855;DHT22;5987;53.140;8.904;2024-03-06T08:46:17;5.80;99.90
11855;DHT22;5987;53.140;8.904;2024-03-06T08:49:21;6.00;99.90
11855;DHT22;5987;53.140;8.904;2024-03-06T08:52:26;6.00;99.90
11855;DHT22;5987;53.140;8.904;2024-03-06T08:55:30;6.20;99.90
11855;DHT22;5987;53.140;8.904;2024-03-06T08:58:34;6.20;99.90
11855;DHT22;5987;53.140;8.904;2024-03-06T09:01:38;6.30;99.90
11855;DHT22;5987;53.140;8.904;2024-03-06T09:04:42;6.30;99.90
11855;DHT22;5987;53.140;8.904;2024-03-06T09:07:47;6.30;99.90
11855;DHT22;5987;53.140;8.904;2024-03-06T09:10:52;6.40;99.90
11855;DHT22;5987;53.140;8.904;2024-03-06T09:13:58;6.30;99.90
11855;DHT22;5987;53.140;8.904;2024-03-06T09:17:05;6.50;99.90
11855;DHT22;5987;53.140;8.904;2024-03-06T09:20:11;6.60;99.90
11855;DHT22;5987;53.140;8.904;2024-03-06T09:23:17;6.60;99.90
11855;DHT22;5987;53.140;8.904;2024-03-06T09:26:21;6.80;99.90
11855;DHT22;5987;53.140;8.904;2024-03-06T09:29:25;6.80;99.90
11855;DHT22;5987;53.140;8.904;2024-03-06T09:32:29;6.90;99.90
11855;DHT22;5987;53.140;8.904;2024-03-06T09:35:33;7.10;99.90
11855;DHT22;5987;53.140;8.904;2024-03-06T09:38:39;7.10;99.90
11855;DHT22;5987;53.140;8.904;2024-03-06T09:41:44;7.20;99.90
11855;DHT22;5987;53.140;8.904;2024-03-06T09:44:48;7.20;99.90
11855;DHT22;5987;53.140;8.904;2024-03-06T09:47:52;7.30;99.90
11855;DHT22;5987;53.140;8.904;2024-03-06T09:51:01;7.40;99.90
11855;DHT22;5987;53.140;8.904;2024-03-06T09:54:09;7.40;99.90
11855;DHT22;5987;53.140;8.904;2024-03-06T09:57:21;7.20;99.90
11855;DHT22;5987;53.140;8.904;2024-03-06T10:00:24;7.30;99.90
11855;DHT22;5987;53.140;8.904;2024-03-06T10:03:28;7.30;99.90
11855;DHT22;5987;53.140;8.904;2024-03-06T10:06:32;7.30;99.90
11855;DHT22;5987;53.140;8.904;2024-03-06T10:09:39;7.60;99.90
11855;DHT22;5987;53.140;8.904;2024-03-06T10:12:45;7.80;99.90
11855;DHT22;5987;53.140;8.904;2024-03-06T10:15:56;8.00;99.90
11855;DHT22;5987;53.140;8.904;2024-03-06T10:19:15;8.30;99.90
11855;DHT22;5987;53.140;8.904;2024-03-06T10:22:20;8.30;99.90
11855;DHT22;5987;53.140;8.904;2024-03-06T10:25:28;8.40;99.90
11855;DHT22;5987;53.140;8.904;2024-03-06T10:28:32;8.50;99.90
11855;DHT22;5987;53.140;8.904;2024-03-06T10:31:36;8.50;99.90
11855;DHT22;5987;53.140;8.904;2024-03-06T10:34:40;8.60;99.90
11855;DHT22;5987;53.140;8.904;2024-03-06T10:37:45;8.60;99.90
11855;DHT22;5987;53.140;8.904;2024-03-06T10:40:51;8.50;99.90
11855;DHT22;5987;53.140;8.904;2024-03-06T10:43:56;8.40;99.90
11855;DHT22;5987;53.140;8.904;2024-03-06T10:47:01;8.40;99.90
11855;DHT22;5987;53.140;8.904;2024-03-06T10:50:08;8.50;99.90
11855;DHT22;5987;53.140;8.904;2024-03-06T10:53:15;8.60;99.90
11855;DHT22;5987;53.140;8.904;2024-03-06T10:56:26;8.60;99.90
11855;DHT22;5987;53.140;8.904;2024-03-06T10:59:30;8.60;99.90
11855;DHT22;5987;53.140;8.904;2024-03-06T11:02:34;8.80;99.90
11855;DHT22;5987;53.140;8.904;2024-03-06T11:05:40;8.80;99.90
11855;DHT22;5987;53.140;8.904;2024-03-06T11:08:46;9.00;99.90
11855;DHT22;5987;53.140;8.904;2024-03-06T11:11:53;9.00;99.90
11855;DHT22;5987;53.140;8.904;2024-03-06T11:14:58;8.80;99.90
11855;DHT22;5987;53.140;8.904;2024-03-06T11:21:49;9.00;99.90
11855;DHT22;5987;53.140;8.904;2024-03-06T11:24:53;9.30;99.90
11855;DHT22;5987;53.140;8.904;2024-03-06T11:28:05;9.30;99.90
11855;DHT22;5987;53.140;8.904;2024-03-06T11:31:10;9.50;99.90
11855;DHT22;5987;53.140;8.904;2024-03-06T11:34:16;9.60;99.90
11855;DHT22;5987;53.140;8.904;2024-03-06T11:37:21;9.60;99.90
11855;DHT22;5987;53.140;8.904;2024-03-06T11:40:25;9.50;99.90
11855;DHT22;5987;53.140;8.904;2024-03-06T11:43:31;9.50;99.90
11855;DHT22;5987;53.140;8.904;2024-03-06T11:46:43;9.60;99.90
11855;DHT22;5987;53.140;8.904;2024-03-06T11:49:47;9.60;99.90
11855;DHT22;5987;53.140;8.904;2024-03-06T11:52:52;9.60;99.90
11855;DHT22;5987;53.140;8.904;2024-03-06T11:56:06;9.70;99.90
11855;DHT22;5987;53.140;8.904;2024-03-06T11:59:12;9.70;99.90
11855;DHT22;5987;53.140;8.904;2024-03-06T12:02:16;9.50;99.90
11855;DHT22;5987;53.140;8.904;2024-03-06T12:05:21;9.60;99.90
11855;DHT22;5987;53.140;8.904;2024-03-06T12:08:26;9.70;99.90
11855;DHT22;5987;53.140;8.904;2024-03-06T12:11:30;9.70;99.90
11855;DHT22;5987;53.140;8.904;2024-03-06T12:14:37;9.70;99.90
11855;DHT22;5987;53.140;8.904;2024-03-06T12:17:43;9.70;99.90
11855;DHT22;5987;53.140;8.904;2024-03-06T12:20:50;9.90;99.90
11855;DHT22;5987;53.140;8.904;2024-03-06T12:24:02;9.90;99.90
11855;DHT22;5987;53.140;8.904;2024-03-06T12:27:07;9.90;99.90
11855;DHT22;5987;53.140;8.904;2024-03-06T12:30:15;9.90;99.90
11855;DHT22;5987;53.140;8.904;2024-03-06T12:33:20;9.70;99.90
11855;DHT22;5987;53.140;8.904;2024-03-06T12:36:25;9.70;99.90
11855;DHT22;5987;53.140;8.904;2024-03-06T12:39:31;9.90;99.90
11855;DHT22;5987;53.140;8.904;2024-03-06T12:42:37;10.00;99.90
11855;DHT22;5987;53.140;8.904;2024-03-06T12:45:42;10.00;99.90
11855;DHT22;5987;53.140;8.904;2024-03-06T12:48:46;10.10;99.90
11855;DHT22;5987;53.140;8.904;2024-03-06T12:51:49;10.20;99.90
11855;DHT22;5987;53.140;8.904;2024-03-06T12:54:54;10.20;99.90
11855;DHT22;5987;53.140;8.904;2024-03-06T12:57:58;10.30;99.90
11855;DHT22;5987;53.140;8.904;2024-03-06T13:01:04;10.40;99.90
11855;DHT22;5987;53.140;8.904;2024-03-06T13:04:08;10.30;99.90
11855;DHT22;5987;53.140;8.904;2024-03-06T13:07:14;10.40;99.90
11855;DHT22;5987;53.140;8.904;2024-03-06T13:10:18;10.40;99.90
11855;DHT22;5987;53.140;8.904;2024-03-06T13:13:25;10.30;99.90
11855;DHT22;5987;53.140;8.904;2024-03-06T13:16:32;10.30;99.90
11855;DHT22;5987;53.140;8.904;2024-03-06T13:19:38;10.40;99.90
11855;DHT22;5987;53.140;8.904;2024-03-06T13:22:42;10.50;99.90
11855;DHT22;5987;53.140;8.904;2024-03-06T13:25:46;10.60;99.90
11855;DHT22;5987;53.140;8.904;2024-03-06T13:28:50;10.70;99.90
11855;DHT22;5987;53.140;8.904;2024-03-06T13:31:55;10.70;99.90
11855;DHT22;5987;53.140;8.904;2024-03-06T13:34:59;10.80;99.90
11855;DHT22;5987;53.140;8.904;2024-03-06T13:38:03;10.80;99.90
11855;DHT22;5987;53.140;8.904;2024-03-06T13:41:07;10.90;99.90
11855;DHT22;5987;53.140;8.904;2024-03-06T13:44:11;11.00;99.90
11855;DHT22;5987;53.140;8.904;2024-03-06T13:47:16;10.80;99.90
11855;DHT22;5987;53.140;8.904;2024-03-06T13:50:20;11.00;99.90
11855;DHT22;5987;53.140;8.904;2024-03-06T13:53:26;10.80;99.90
11855;DHT22;5987;53.140;8.904;2024-03-06T13:56:29;10.70;99.90
11855;DHT22;5987;53.140;8.904;2024-03-06T13:59:34;10.60;99.90
11855;DHT22;5987;53.140;8.904;2024-03-06T14:02:39;10.70;99.90
11855;DHT22;5987;53.140;8.904;2024-03-06T14:05:43;10.60;99.90
11855;DHT22;5987;53.140;8.904;2024-03-06T14:08:47;10.60;99.90
11855;DHT22;5987;53.140;8.904;2024-03-06T14:11:54;10.50;99.90
11855;DHT22;5987;53.140;8.904;2024-03-06T14:14:59;10.50;99.90
11855;DHT22;5987;53.140;8.904;2024-03-06T14:18:04;10.50;99.90
11855;DHT22;5987;53.140;8.904;2024-03-06T14:21:09;10.60;99.90
11855;DHT22;5987;53.140;8.904;2024-03-06T14:24:12;10.50;99.90
11855;DHT22;5987;53.140;8.904;2024-03-06T14:27:16;10.70;99.90
11855;DHT22;5987;53.140;8.904;2024-03-06T14:30:20;10.90;99.90
11855;DHT22;5987;53.140;8.904;2024-03-06T14:33:25;10.80;99.90
11855;DHT22;5987;53.140;8.904;2024-03-06T14:36:29;10.90;99.90
11855;DHT22;5987;53.140;8.904;2024-03-06T14:39:34;10.90;99.90
11855;DHT22;5987;53.140;8.904;2024-03-06T14:42:38;10.90;99.90
11855;DHT22;5987;53.140;8.904;2024-03-06T14:45:42;11.00;99.90
11855;DHT22;5987;53.140;8.904;2024-03-06T14:48:49;11.10;99.90
11855;DHT22;5987;53.140;8.904;2024-03-06T14:51:53;11.00;99.90
11855;DHT22;5987;53.140;8.904;2024-03-06T14:54:57;11.00;99.90
11855;DHT22;5987;53.140;8.904;2024-03-06T14:58:01;10.90;99.90
11855;DHT22;5987;53.140;8.904;2024-03-06T15:01:06;11.00;99.90
11855;DHT22;5987;53.140;8.904;2024-03-06T15:04:11;10.90;99.90
11855;DHT22;5987;53.140;8.904;2024-03-06T15:07:15;10.60;99.90
11855;DHT22;5987;53.140;8.904;2024-03-06T15:10:20;10.50;99.90
11855;DHT22;5987;53.140;8.904;2024-03-06T15:13:24;10.50;99.90
11855;DHT22;5987;53.140;8.904;2024-03-06T15:16:29;10.50;99.90
11855;DHT22;5987;53.140;8.904;2024-03-06T15:19:34;10.50;99.90
11855;DHT22;5987;53.140;8.904;2024-03-06T15:22:39;10.60;99.90
11855;DHT22;5987;53.140;8.904;2024-03-06T15:25:44;10.50;99.90
11855;DHT22;5987;53.140;8.904;2024-03-06T15:28:48;10.40;99.90
11855;DHT22;5987;53.140;8.904;2024-03-06T15:31:51;10.30;99.90
11855;DHT22;5987;53.140;8.904;2024-03-06T15:34:57;10.20;99.90
11855;DHT22;5987;53.140;8.904;2024-03-06T15:38:01;10.20;99.90
11855;DHT22;5987;53.140;8.904;2024-03-06T15:41:05;10.00;99.90
11855;DHT22;5987;53.140;8.904;2024-03-06T15:44:11;10.00;99.90
11855;DHT22;5987;53.140;8.904;2024-03-06T15:47:16;9.90;99.90
11855;DHT22;5987;53.140;8.904;2024-03-06T15:50:22;9.80;99.90
11855;DHT22;5987;53.140;8.904;2024-03-06T15:53:27;9.80;99.90
11855;DHT22;5987;53.140;8.904;2024-03-06T15:56:32;9.80;99.90
11855;DHT22;5987;53.140;8.904;2024-03-06T15:59:36;9.90;99.90
11855;DHT22;5987;53.140;8.904;2024-03-06T16:02:43;9.90;99.90
11855;DHT22;5987;53.140;8.904;2024-03-06T16:05:48;9.90;99.90
11855;DHT22;5987;53.140;8.904;2024-03-06T16:09:00;9.80;99.90
11855;DHT22;5987;53.140;8.904;2024-03-06T16:12:05;9.70;99.90
11855;DHT22;5987;53.140;8.904;2024-03-06T16:15:10;9.70;99.90
11855;DHT22;5987;53.140;8.904;2024-03-06T16:18:14;9.60;99.90
11855;DHT22;5987;53.140;8.904;2024-03-06T16:21:19;9.80;99.90
11855;DHT22;5987;53.140;8.904;2024-03-06T16:24:24;9.80;99.90
11855;DHT22;5987;53.140;8.904;2024-03-06T16:27:28;9.80;99.90
11855;DHT22;5987;53.140;8.904;2024-03-06T16:30:32;9.70;99.90
11855;DHT22;5987;53.140;8.904;2024-03-06T16:33:35;9.70;99.90
11855;DHT22;5987;53.140;8.904;2024-03-06T16:36:41;9.60;99.90
11855;DHT22;5987;53.140;8.904;2024-03-06T16:39:44;9.70;99.90
11855;DHT22;5987;53.140;8.904;2024-03-06T16:42:50;9.70;99.90
11855;DHT22;5987;53.140;8.904;2024-03-06T16:45:57;9.70;99.90
11855;DHT22;5987;53.140;8.904;2024-03-06T16:49:01;9.70;99.90
11855;DHT22;5987;53.140;8.904;2024-03-06T16:52:07;9.70;99.90
11855;DHT22;5987;53.140;8.904;2024-03-06T16:55:13;9.70;99.90
11855;DHT22;5987;53.140;8.904;2024-03-06T16:58:17;9.60;99.90
11855;DHT22;5987;53.140;8.904;2024-03-06T17:01:23;9.50;99.90
11855;DHT22;5987;53.140;8.904;2024-03-06T17:04:28;9.50;99.90
11855;DHT22;5987;53.140;8.904;2024-03-06T17:07:33;9.30;99.90
11855;DHT22;5987;53.140;8.904;2024-03-06T17:10:37;9.30;99.90
11855;DHT22;5987;53.140;8.904;2024-03-06T17:13:42;9.30;99.90
11855;DHT22;5987;53.140;8.904;2024-03-06T17:16:45;9.20;99.90
11855;DHT22;5987;53.140;8.904;2024-03-06T17:19:49;9.10;99.90
11855;DHT22;5987;53.140;8.904;2024-03-06T17:22:54;9.00;99.90
11855;DHT22;5987;53.140;8.904;2024-03-06T17:26:00;8.90;99.90
11855;DHT22;5987;53.140;8.904;2024-03-06T17:29:05;8.90;99.90
11855;DHT22;5987;53.140;8.904;2024-03-06T17:32:09;8.80;99.90
11855;DHT22;5987;53.140;8.904;2024-03-06T17:35:15;8.70;99.90
11855;DHT22;5987;53.140;8.904;2024-03-06T17:38:20;8.60;99.90
11855;DHT22;5987;53.140;8.904;2024-03-06T17:41:26;8.60;99.90
11855;DHT22;5987;53.140;8.904;2024-03-06T17:44:30;8.40;99.90
11855;DHT22;5987;53.140;8.904;2024-03-06T17:47:34;8.40;99.90
11855;DHT22;5987;53.140;8.904;2024-03-06T17:50:39;8.30;99.90
11855;DHT22;5987;53.140;8.904;2024-03-06T17:53:47;8.20;99.90
11855;DHT22;5987;53.140;8.904;2024-03-06T17:56:51;8.20;99.90
11855;DHT22;5987;53.140;8.904;2024-03-06T17:59:57;8.10;99.90
11855;DHT22;5987;53.140;8.904;2024-03-06T18:03:02;8.00;99.90
11855;DHT22;5987;53.140;8.904;2024-03-06T18:06:07;7.90;99.90
11855;DHT22;5987;53.140;8.904;2024-03-06T18:09:12;7.80;99.90
11855;DHT22;5987;53.140;8.904;2024-03-06T18:12:17;7.80;99.90
11855;DHT22;5987;53.140;8.904;2024-03-06T18:15:34;7.80;99.90
11855;DHT22;5987;53.140;8.904;2024-03-06T18:18:38;7.60;99.90
11855;DHT22;5987;53.140;8.904;2024-03-06T18:21:42;7.50;99.90
11855;DHT22;5987;53.140;8.904;2024-03-06T18:24:50;7.50;99.90
11855;DHT22;5987;53.140;8.904;2024-03-06T18:27:54;7.40;99.90
11855;DHT22;5987;53.140;8.904;2024-03-06T18:30:58;7.40;99.90
11855;DHT22;5987;53.140;8.904;2024-03-06T18:34:06;7.30;99.90
11855;DHT22;5987;53.140;8.904;2024-03-06T18:37:10;7.30;99.90
11855;DHT22;5987;53.140;8.904;2024-03-06T18:40:16;7.30;99.90
11855;DHT22;5987;53.140;8.904;2024-03-06T18:43:20;7.30;99.90
11855;DHT22;5987;53.140;8.904;2024-03-06T18:46:24;7.30;99.90
11855;DHT22;5987;53.140;8.904;2024-03-06T18:49:29;7.20;99.90
11855;DHT22;5987;53.140;8.904;2024-03-06T18:52:34;7.10;99.90
11855;DHT22;5987;53.140;8.904;2024-03-06T18:55:39;7.10;99.90
11855;DHT22;5987;53.140;8.904;2024-03-06T18:58:43;7.00;99.90
11855;DHT22;5987;53.140;8.904;2024-03-06T19:01:47;6.90;99.90
11855;DHT22;5987;53.140;8.904;2024-03-06T19:04:51;6.90;99.90
11855;DHT22;5987;53.140;8.904;2024-03-06T19:07:56;6.80;99.90
11855;DHT22;5987;53.140;8.904;2024-03-06T19:11:01;6.80;99.90
11855;DHT22;5987;53.140;8.904;2024-03-06T19:14:06;6.70;99.90
11855;DHT22;5987;53.140;8.904;2024-03-06T19:17:10;6.70;99.90
11855;DHT22;5987;53.140;8.904;2024-03-06T19:20:14;6.70;99.90
11855;DHT22;5987;53.140;8.904;2024-03-06T19:23:18;6.70;99.90
11855;DHT22;5987;53.140;8.904;2024-03-06T19:26:23;6.60;99.90
11855;DHT22;5987;53.140;8.904;2024-03-06T19:29:27;6.50;99.90
11855;DHT22;5987;53.140;8.904;2024-03-06T19:32:31;6.50;99.90
11855;DHT22;5987;53.140;8.904;2024-03-06T19:35:51;6.50;99.90
11855;DHT22;5987;53.140;8.904;2024-03-06T19:38:55;6.40;99.90
11855;DHT22;5987;53.140;8.904;2024-03-06T19:42:01;6.40;99.90
11855;DHT22;5987;53.140;8.904;2024-03-06T19:45:08;6.30;99.90
11855;DHT22;5987;53.140;8.904;2024-03-06T19:48:12;6.20;99.90
11855;DHT22;5987;53.140;8.904;2024-03-06T19:51:19;6.30;99.90
11855;DHT22;5987;53.140;8.904;2024-03-06T19:54:23;6.20;99.90
11855;DHT22;5987;53.140;8.904;2024-03-06T19:57:28;6.20;99.90
11855;DHT22;5987;53.140;8.904;2024-03-06T20:00:32;6.20;99.90
11855;DHT22;5987;53.140;8.904;2024-03-06T20:03:37;6.20;99.90
11855;DHT22;5987;53.140;8.904;2024-03-06T20:06:41;6.20;99.90
11855;DHT22;5987;53.140;8.904;2024-03-06T20:09:45;6.10;99.90
11855;DHT22;5987;53.140;8.904;2024-03-06T20:12:50;6.10;99.90